createdAt,value
2023-04-27T00:00:37.163Z,5.53
2023-04-27T00:01:37.108Z,5.64
2023-04-27T00:02:37.120Z,5.51
2023-04-27T00:03:37.252Z,5.65
2023-04-27T00:04:37.245Z,5.56
2023-04-27T00:05:37.172Z,5.66
2023-04-27T00:06:37.061Z,5.56
2023-04-27T00:07:37.013Z,5.61
2023-04-27T00:08:37.041Z,5.48
2023-04-27T00:09:36.981Z,5.32
2023-04-27T00:10:36.989Z,5.25
2023-04-27T00:11:37.044Z,5.08
2023-04-27T00:12:36.997Z,5.15
2023-04-27T00:13:36.963Z,5.12
2023-04-27T00:14:36.938Z,5.17
2023-04-27T00:15:36.962Z,5.18
2023-04-27T00:16:37.001Z,5.25
2023-04-27T00:17:36.962Z,5.29
2023-04-27T00:18:36.915Z,5.38
2023-04-27T00:19:36.975Z,5.41
2023-04-27T00:20:36.879Z,5.38
2023-04-27T00:21:37.018Z,5.43
2023-04-27T00:22:36.853Z,5.50
2023-04-27T00:23:36.935Z,5.53
2023-04-27T00:24:36.885Z,5.53
2023-04-27T00:25:36.869Z,5.51
2023-04-27T00:26:36.829Z,5.65
2023-04-27T00:27:36.820Z,5.57
2023-04-27T00:28:36.886Z,5.53
2023-04-27T00:29:36.818Z,5.54
2023-04-27T00:30:36.858Z,5.53
2023-04-27T00:31:36.848Z,5.56
2023-04-27T00:32:36.808Z,5.51
2023-04-27T00:33:36.740Z,5.44
2023-04-27T00:34:36.717Z,5.48
2023-04-27T00:35:37.483Z,5.50
2023-04-27T00:36:36.786Z,5.44
2023-04-27T00:37:36.749Z,5.41
2023-04-27T00:38:36.716Z,5.39
2023-04-27T00:39:36.706Z,5.43
2023-04-27T00:40:36.695Z,5.48
2023-04-27T00:41:36.699Z,5.53
2023-04-27T00:42:37.437Z,5.53
2023-04-27T00:43:36.656Z,5.44
2023-04-27T00:44:38.054Z,5.50
2023-04-27T00:45:36.682Z,5.56
2023-04-27T00:46:36.685Z,5.41
2023-04-27T00:47:36.679Z,5.36
2023-04-27T00:48:36.625Z,5.33
2023-04-27T00:49:36.661Z,5.38
2023-04-27T00:50:36.600Z,5.26
2023-04-27T00:51:36.674Z,5.36
2023-04-27T00:52:36.592Z,5.33
2023-04-27T00:53:36.614Z,5.30
2023-04-27T00:54:36.567Z,5.21
2023-04-27T00:55:36.577Z,5.30
2023-04-27T00:56:36.667Z,5.36
2023-04-27T00:57:36.538Z,5.32
2023-04-27T00:58:37.363Z,5.26
2023-04-27T00:59:36.537Z,5.12
2023-04-27T01:00:36.557Z,5.25
2023-04-27T01:01:36.516Z,5.07
2023-04-27T01:02:36.591Z,5.10
2023-04-27T01:03:36.768Z,5.12
2023-04-27T01:04:36.551Z,5.17
2023-04-27T01:05:36.573Z,5.20
2023-04-27T01:06:36.425Z,5.25
2023-04-27T01:07:36.534Z,5.26
2023-04-27T01:08:36.470Z,5.29
2023-04-27T01:09:36.397Z,5.38
2023-04-27T01:10:36.407Z,5.26
2023-04-27T01:11:36.421Z,5.39
2023-04-27T01:12:36.401Z,5.41
2023-04-27T01:13:36.354Z,5.35
2023-04-27T01:14:36.487Z,5.38
2023-04-27T01:15:36.370Z,5.41
2023-04-27T01:16:36.451Z,5.48
2023-04-27T01:17:36.374Z,5.53
2023-04-27T01:18:36.344Z,5.48
2023-04-27T01:19:36.312Z,5.53
2023-04-27T01:20:36.313Z,5.50
2023-04-27T01:21:37.354Z,5.56
2023-04-27T01:22:36.323Z,5.61
2023-04-27T01:23:36.376Z,5.56
2023-04-27T01:24:36.318Z,5.50
2023-04-27T01:25:36.257Z,5.39
2023-04-27T01:26:36.413Z,5.36
2023-04-27T01:27:36.236Z,5.41
2023-04-27T01:28:36.220Z,5.29
2023-04-27T01:29:36.218Z,5.21
2023-04-27T01:30:36.200Z,5.21
2023-04-27T01:31:36.293Z,5.20
2023-04-27T01:32:36.265Z,5.17
2023-04-27T01:33:36.314Z,5.23
2023-04-27T01:34:36.129Z,5.20
2023-04-27T01:35:36.170Z,5.25
2023-04-27T01:36:36.165Z,5.26
2023-04-27T01:37:36.920Z,5.35
2023-04-27T01:38:36.134Z,5.41
2023-04-27T01:39:36.145Z,5.41
2023-04-27T01:40:36.229Z,5.46
2023-04-27T01:41:36.136Z,5.41
2023-04-27T01:42:36.095Z,5.38
2023-04-27T01:43:36.159Z,5.29
2023-04-27T01:44:36.821Z,5.39
2023-04-27T01:45:36.077Z,5.39
2023-04-27T01:46:36.148Z,5.43
2023-04-27T01:47:36.113Z,5.38
2023-04-27T01:48:36.039Z,5.35
2023-04-27T01:49:36.981Z,5.35
2023-04-27T01:50:36.035Z,5.33
2023-04-27T01:51:36.042Z,5.28
2023-04-27T01:52:35.974Z,5.30
2023-04-27T01:53:36.004Z,5.32
2023-04-27T01:54:35.982Z,5.35
2023-04-27T01:55:35.956Z,5.25
2023-04-27T01:56:37.515Z,5.23
2023-04-27T01:57:35.919Z,5.14
2023-04-27T01:58:35.972Z,5.05
2023-04-27T01:59:35.944Z,5.00
2023-04-27T02:00:36.808Z,4.92
2023-04-27T02:01:35.997Z,4.94
2023-04-27T02:02:35.981Z,4.97
2023-04-27T02:03:36.050Z,4.78
2023-04-27T02:04:35.969Z,4.80
2023-04-27T02:05:35.997Z,4.77
2023-04-27T02:06:35.895Z,4.70
2023-04-27T02:07:35.918Z,4.77
2023-04-27T02:08:35.832Z,4.78
2023-04-27T02:09:35.832Z,4.73
2023-04-27T02:10:35.837Z,4.74
2023-04-27T02:11:35.833Z,4.78
2023-04-27T02:12:36.325Z,4.67
2023-04-27T02:13:35.785Z,4.73
2023-04-27T02:14:35.832Z,4.77
2023-04-27T02:15:35.801Z,4.77
2023-04-27T02:16:35.906Z,4.77
2023-04-27T02:17:36.504Z,4.82
2023-04-27T02:18:35.730Z,4.87
2023-04-27T02:19:35.799Z,4.84
2023-04-27T02:20:35.739Z,4.97
2023-04-27T02:21:35.992Z,4.78
2023-04-27T02:22:35.733Z,4.68
2023-04-27T02:23:35.716Z,4.62
2023-04-27T02:24:36.527Z,4.56
2023-04-27T02:25:35.702Z,4.45
2023-04-27T02:26:35.699Z,4.40
2023-04-27T02:27:35.628Z,4.32
2023-04-27T02:28:36.341Z,4.31
2023-04-27T02:29:35.631Z,4.23
2023-04-27T02:30:35.637Z,4.26
2023-04-27T02:31:36.084Z,4.34
2023-04-27T02:32:35.700Z,4.30
2023-04-27T02:33:35.647Z,4.38
2023-04-27T02:34:35.686Z,4.45
2023-04-27T02:35:35.664Z,4.49
2023-04-27T02:36:35.604Z,4.40
2023-04-27T02:37:35.574Z,4.38
2023-04-27T02:38:35.564Z,4.38
2023-04-27T02:39:35.583Z,4.53
2023-04-27T02:40:35.518Z,4.55
2023-04-27T02:41:35.552Z,4.62
2023-04-27T02:42:35.533Z,4.62
2023-04-27T02:43:35.535Z,4.66
2023-04-27T02:44:35.496Z,4.70
2023-04-27T02:45:35.515Z,4.68
2023-04-27T02:46:35.543Z,4.71
2023-04-27T02:47:36.466Z,4.80
2023-04-27T02:48:35.453Z,4.80
2023-04-27T02:49:37.406Z,4.74
2023-04-27T02:50:35.418Z,4.84
2023-04-27T02:51:35.463Z,4.97
2023-04-27T02:52:35.398Z,4.92
2023-04-27T02:53:35.419Z,4.87
2023-04-27T02:54:36.069Z,4.84
2023-04-27T02:55:35.434Z,4.89
2023-04-27T02:56:35.628Z,4.92
2023-04-27T02:57:35.374Z,4.80
2023-04-27T02:58:35.336Z,4.89
2023-04-27T02:59:35.343Z,4.80
2023-04-27T03:00:35.350Z,4.90
2023-04-27T03:01:35.435Z,4.80
2023-04-27T03:02:35.372Z,4.80
2023-04-27T03:03:35.467Z,4.89
2023-04-27T03:04:35.353Z,4.87
2023-04-27T03:05:35.449Z,4.90
2023-04-27T03:06:35.274Z,4.97
2023-04-27T03:07:35.251Z,4.94
2023-04-27T03:08:35.252Z,4.94
2023-04-27T03:09:35.232Z,4.87
2023-04-27T03:10:35.375Z,4.94
2023-04-27T03:11:37.259Z,4.92
2023-04-27T03:12:36.951Z,4.86
2023-04-27T03:13:35.197Z,4.92
2023-04-27T03:14:35.190Z,4.84
2023-04-27T03:15:35.202Z,4.80
2023-04-27T03:16:35.204Z,4.73
2023-04-27T03:17:35.334Z,4.63
2023-04-27T03:18:35.172Z,4.66
2023-04-27T03:19:35.169Z,4.74
2023-04-27T03:20:35.127Z,4.77
2023-04-27T03:21:35.184Z,4.75
2023-04-27T03:22:35.126Z,4.58
2023-04-27T03:23:35.116Z,4.62
2023-04-27T03:24:35.182Z,4.48
2023-04-27T03:25:35.080Z,4.37
2023-04-27T03:26:35.167Z,4.32
2023-04-27T03:27:35.087Z,4.24
2023-04-27T03:28:35.100Z,4.02
2023-04-27T03:29:35.025Z,4.16
2023-04-27T03:30:35.039Z,4.10
2023-04-27T03:31:35.151Z,4.01
2023-04-27T03:32:35.049Z,3.96
2023-04-27T03:33:35.106Z,3.84
2023-04-27T03:34:34.985Z,3.81
2023-04-27T03:35:35.012Z,3.86
2023-04-27T03:36:35.009Z,3.81
2023-04-27T03:37:34.976Z,3.73
2023-04-27T03:38:34.964Z,3.86
2023-04-27T03:39:34.937Z,3.81
2023-04-27T03:40:35.075Z,3.76
2023-04-27T03:41:34.984Z,3.70
2023-04-27T03:42:34.959Z,3.88
2023-04-27T03:43:34.887Z,3.80
2023-04-27T03:44:34.921Z,3.83
2023-04-27T03:45:34.888Z,3.77
2023-04-27T03:46:35.112Z,3.70
2023-04-27T03:47:34.948Z,3.66
2023-04-27T03:48:34.831Z,3.53
2023-04-27T03:49:34.892Z,3.40
2023-04-27T03:50:34.830Z,3.41
2023-04-27T03:51:34.837Z,3.40
2023-04-27T03:52:35.021Z,3.29
2023-04-27T03:53:34.801Z,3.34
2023-04-27T03:54:34.807Z,3.31
2023-04-27T03:55:34.787Z,3.11
2023-04-27T03:56:35.372Z,3.13
2023-04-27T03:57:34.792Z,3.07
2023-04-27T03:58:34.748Z,2.95
2023-04-27T03:59:35.441Z,3.04
2023-04-27T04:00:34.761Z,3.00
2023-04-27T04:01:34.750Z,3.03
2023-04-27T04:02:34.828Z,3.11
2023-04-27T04:03:35.069Z,3.00
2023-04-27T04:04:34.840Z,3.00
2023-04-27T04:05:35.336Z,2.93
2023-04-27T04:06:34.681Z,3.03
2023-04-27T04:07:34.674Z,3.07
2023-04-27T04:08:34.660Z,3.04
2023-04-27T04:09:34.646Z,3.00
2023-04-27T04:10:34.760Z,2.89
2023-04-27T04:11:34.647Z,2.90
2023-04-27T04:12:34.676Z,2.80
2023-04-27T04:13:34.600Z,2.92
2023-04-27T04:14:34.617Z,2.80
2023-04-27T04:15:34.674Z,2.85
2023-04-27T04:16:34.729Z,2.95
2023-04-27T04:17:34.683Z,2.83
2023-04-27T04:18:34.584Z,2.71
2023-04-27T04:19:34.584Z,2.65
2023-04-27T04:20:34.537Z,2.68
2023-04-27T04:21:34.714Z,2.71
2023-04-27T04:22:34.544Z,2.79
2023-04-27T04:23:34.600Z,2.82
2023-04-27T04:24:35.436Z,2.86
2023-04-27T04:25:34.513Z,2.95
2023-04-27T04:26:34.490Z,2.93
2023-04-27T04:27:34.495Z,3.00
2023-04-27T04:28:34.442Z,3.11
2023-04-27T04:29:34.443Z,3.07
2023-04-27T04:30:34.403Z,3.11
2023-04-27T04:31:34.573Z,3.18
2023-04-27T04:32:34.443Z,3.18
2023-04-27T04:33:34.577Z,3.21
2023-04-27T04:34:34.446Z,3.14
2023-04-27T04:35:34.381Z,3.16
2023-04-27T04:36:34.431Z,3.22
2023-04-27T04:37:34.347Z,3.07
2023-04-27T04:38:34.447Z,2.95
2023-04-27T04:39:34.385Z,3.04
2023-04-27T04:40:34.343Z,2.90
2023-04-27T04:41:34.372Z,2.86
2023-04-27T04:42:34.315Z,2.69
2023-04-27T04:43:34.265Z,2.67
2023-04-27T04:44:34.308Z,2.64
2023-04-27T04:45:35.067Z,2.49
2023-04-27T04:46:34.379Z,2.54
2023-04-27T04:47:34.425Z,2.46
2023-04-27T04:48:34.288Z,2.54
2023-04-27T04:49:34.289Z,2.54
2023-04-27T04:50:34.257Z,2.47
2023-04-27T04:51:34.306Z,2.49
2023-04-27T04:52:34.302Z,2.64
2023-04-27T04:53:34.301Z,2.53
2023-04-27T04:54:34.224Z,2.51
2023-04-27T04:55:34.206Z,2.60
2023-04-27T04:56:34.182Z,2.62
2023-04-27T04:57:34.204Z,2.64
2023-04-27T04:58:34.167Z,2.65
2023-04-27T04:59:34.913Z,2.83
2023-04-27T05:00:34.140Z,2.89
2023-04-27T05:01:34.224Z,3.01
2023-04-27T05:02:34.332Z,3.05
2023-04-27T05:03:34.295Z,3.19
2023-04-27T05:04:34.293Z,3.19
2023-04-27T05:05:34.088Z,3.26
2023-04-27T05:06:34.131Z,3.36
2023-04-27T05:07:34.088Z,3.41
2023-04-27T05:08:34.089Z,3.48
2023-04-27T05:09:34.080Z,3.55
2023-04-27T05:10:34.134Z,3.63
2023-04-27T05:11:34.087Z,3.60
2023-04-27T05:12:34.065Z,3.73
2023-04-27T05:13:33.993Z,3.76
2023-04-27T05:14:34.013Z,3.84
2023-04-27T05:15:33.975Z,3.84
2023-04-27T05:16:34.088Z,4.06
2023-04-27T05:17:34.096Z,4.02
2023-04-27T05:18:33.972Z,4.01
2023-04-27T05:19:34.019Z,4.12
2023-04-27T05:20:33.965Z,4.17
2023-04-27T05:21:33.977Z,4.16
2023-04-27T05:22:33.927Z,4.26
2023-04-27T05:23:33.925Z,4.26
2023-04-27T05:24:34.550Z,4.31
2023-04-27T05:25:33.948Z,4.30
2023-04-27T05:26:34.802Z,4.22
2023-04-27T05:27:33.994Z,4.28
2023-04-27T05:28:33.864Z,4.32
2023-04-27T05:29:33.897Z,4.38
2023-04-27T05:30:33.847Z,4.40
2023-04-27T05:31:33.938Z,4.50
2023-04-27T05:32:33.928Z,4.59
2023-04-27T05:33:33.857Z,4.58
2023-04-27T05:34:33.793Z,4.58
2023-04-27T05:35:33.797Z,4.62
2023-04-27T05:36:33.829Z,4.55
2023-04-27T05:37:33.808Z,4.78
2023-04-27T05:38:33.746Z,4.74
2023-04-27T05:39:33.768Z,4.80
2023-04-27T05:40:33.807Z,4.70
2023-04-27T05:41:34.725Z,4.78
2023-04-27T05:42:33.797Z,4.75
2023-04-27T05:43:33.800Z,4.86
2023-04-27T05:44:33.688Z,4.78
2023-04-27T05:45:34.529Z,4.96
2023-04-27T05:46:33.679Z,4.90
2023-04-27T05:47:33.835Z,4.99
2023-04-27T05:48:33.667Z,4.97
2023-04-27T05:49:33.651Z,5.07
2023-04-27T05:50:33.640Z,5.04
2023-04-27T05:51:33.660Z,5.07
2023-04-27T05:52:34.548Z,5.02
2023-04-27T05:53:33.634Z,5.07
2023-04-27T05:54:33.584Z,5.20
2023-04-27T05:55:33.624Z,5.21
2023-04-27T05:56:33.744Z,5.33
2023-04-27T05:57:33.645Z,5.36
2023-04-27T05:58:33.622Z,5.32
2023-04-27T05:59:33.600Z,5.38
2023-04-27T06:00:33.522Z,5.35
2023-04-27T06:01:33.571Z,5.32
2023-04-27T06:02:33.669Z,5.36
2023-04-27T06:03:34.505Z,5.39
2023-04-27T06:04:33.580Z,5.41
2023-04-27T06:05:33.634Z,5.29
2023-04-27T06:06:33.553Z,5.38
2023-04-27T06:07:33.598Z,5.36
2023-04-27T06:08:33.480Z,5.43
2023-04-27T06:09:33.467Z,5.38
2023-04-27T06:10:33.458Z,5.54
2023-04-27T06:11:33.449Z,5.57
2023-04-27T06:12:33.497Z,5.57
2023-04-27T06:13:33.442Z,5.61
2023-04-27T06:14:33.445Z,5.64
2023-04-27T06:15:33.558Z,5.71
2023-04-27T06:16:33.510Z,5.73
2023-04-27T06:17:33.466Z,5.71
2023-04-27T06:31:50.124Z,5.82
2023-04-27T06:32:50.178Z,5.84
2023-04-27T06:33:50.064Z,5.94
2023-04-27T06:34:50.065Z,5.89
2023-04-27T06:35:50.268Z,6.07
2023-04-27T06:36:50.070Z,6.22
2023-04-27T06:37:50.032Z,6.30
2023-04-27T06:38:50.024Z,6.36
2023-04-27T06:39:51.198Z,6.42
2023-04-27T06:40:51.176Z,6.56
2023-04-27T06:41:51.205Z,6.57
2023-04-27T06:42:51.226Z,6.70
2023-04-27T06:43:51.162Z,6.75
2023-04-27T06:44:51.197Z,6.72
2023-04-27T06:45:51.259Z,6.88
2023-04-27T06:46:51.150Z,6.88
2023-04-27T06:47:51.228Z,6.97
2023-04-27T06:48:51.121Z,7.13
2023-04-27T06:49:51.287Z,7.05
2023-04-27T06:50:51.088Z,7.05
2023-04-27T06:51:51.150Z,7.10
2023-04-27T06:52:51.187Z,7.24
2023-04-27T06:53:51.115Z,7.25
2023-04-27T06:54:51.134Z,7.42
2023-04-27T06:55:51.123Z,7.35
2023-04-27T06:56:51.035Z,7.43
2023-04-27T06:57:51.072Z,7.39
2023-04-27T06:58:52.084Z,7.48
2023-04-27T06:59:51.053Z,7.51
2023-04-27T07:00:50.983Z,7.57
2023-04-27T07:01:51.015Z,7.50
2023-04-27T07:02:51.044Z,7.54
2023-04-27T07:03:51.266Z,7.67
2023-04-27T07:04:51.045Z,7.58
2023-04-27T07:05:50.976Z,7.66
2023-04-27T07:06:51.856Z,7.66
2023-04-27T07:07:50.925Z,7.56
2023-04-27T07:08:50.912Z,7.73
2023-04-27T07:09:50.904Z,7.85
2023-04-27T07:10:50.925Z,7.93
2023-04-27T07:11:50.851Z,7.97
2023-04-27T07:12:50.999Z,7.91
2023-04-27T07:13:50.964Z,7.87
2023-04-27T07:14:50.853Z,7.87
2023-04-27T07:15:50.878Z,7.94
2023-04-27T07:16:50.878Z,7.97
2023-04-27T07:17:51.035Z,8.03
2023-04-27T07:18:50.873Z,8.05
2023-04-27T07:19:50.827Z,8.16
2023-04-27T07:20:51.308Z,8.36
2023-04-27T07:21:50.779Z,8.38
2023-04-27T07:22:50.817Z,8.49
2023-04-27T07:23:50.758Z,8.53
2023-04-27T07:24:50.783Z,8.51
2023-04-27T07:25:50.749Z,8.44
2023-04-27T07:26:50.819Z,8.44
2023-04-27T07:27:50.722Z,8.37
2023-04-27T07:28:50.679Z,8.37
2023-04-27T07:29:50.734Z,8.44
2023-04-27T07:30:50.700Z,8.51
2023-04-27T07:31:52.286Z,8.60
2023-04-27T07:32:51.719Z,8.69
2023-04-27T07:33:50.675Z,8.70
2023-04-27T07:34:54.151Z,8.76
2023-04-27T07:35:51.660Z,8.74
2023-04-27T07:36:50.625Z,8.69
2023-04-27T07:37:50.627Z,8.70
2023-04-27T07:38:50.713Z,8.74
2023-04-27T07:39:50.569Z,8.87
2023-04-27T07:40:50.601Z,8.85
2023-04-27T07:41:50.629Z,8.91
2023-04-27T07:42:50.565Z,8.99
2023-04-27T07:43:50.603Z,8.95
2023-04-27T07:44:50.526Z,9.03
2023-04-27T07:45:51.312Z,9.18
2023-04-27T07:46:50.550Z,9.25
2023-04-27T07:47:50.569Z,9.13
2023-04-27T07:48:50.539Z,9.11
2023-04-27T07:49:50.486Z,9.10
2023-04-27T07:50:50.479Z,9.02
2023-04-27T07:51:50.474Z,9.19
2023-04-27T07:52:50.466Z,9.04
2023-04-27T07:53:50.484Z,9.10
2023-04-27T07:54:50.515Z,9.28
2023-04-27T07:55:50.432Z,9.28
2023-04-27T07:56:50.394Z,9.18
2023-04-27T07:57:50.461Z,9.36
2023-04-27T07:58:50.385Z,9.39
2023-04-27T07:59:50.352Z,9.26
2023-04-27T08:00:50.351Z,9.13
2023-04-27T08:01:51.300Z,9.21
2023-04-27T08:02:50.563Z,9.19
2023-04-27T08:03:50.719Z,8.99
2023-04-27T08:04:50.662Z,9.23
2023-04-27T08:05:51.638Z,9.26
2023-04-27T08:06:50.724Z,9.46
2023-04-27T08:07:50.450Z,9.51
2023-04-27T08:08:50.367Z,9.46
2023-04-27T08:09:50.292Z,9.59
2023-04-27T08:10:50.322Z,9.74
2023-04-27T08:11:50.258Z,9.76
2023-04-27T08:12:50.396Z,9.82
2023-04-27T08:13:50.269Z,9.73
2023-04-27T08:14:50.199Z,9.69
2023-04-27T08:15:50.297Z,9.79
2023-04-27T08:16:50.256Z,9.65
2023-04-27T08:17:50.440Z,9.76
2023-04-27T08:18:50.175Z,9.89
2023-04-27T08:19:50.203Z,9.94
2023-04-27T08:20:50.209Z,9.84
2023-04-27T08:21:50.232Z,9.89
2023-04-27T08:22:50.247Z,9.87
2023-04-27T08:23:50.159Z,9.87
2023-04-27T08:24:50.179Z,9.94
2023-04-27T08:25:50.213Z,9.97
2023-04-27T08:26:50.139Z,10.01
2023-04-27T08:27:50.140Z,10.12
2023-04-27T08:28:50.192Z,10.15
2023-04-27T08:29:50.112Z,10.16
2023-04-27T08:30:50.064Z,10.33
2023-04-27T08:31:50.284Z,10.33
2023-04-27T08:32:50.114Z,10.19
2023-04-27T08:33:50.045Z,10.17
2023-04-27T08:34:50.058Z,10.37
2023-04-27T08:35:50.223Z,10.40
2023-04-27T08:36:50.053Z,10.33
2023-04-27T08:37:50.147Z,10.25
2023-04-27T08:38:49.989Z,10.34
2023-04-27T08:39:50.034Z,10.49
2023-04-27T08:40:50.078Z,10.57
2023-04-27T08:41:49.976Z,10.59
2023-04-27T08:42:50.915Z,10.61
2023-04-27T08:43:49.967Z,10.57
2023-04-27T08:44:50.658Z,10.59
2023-04-27T08:45:49.889Z,10.68
2023-04-27T08:46:49.942Z,10.61
2023-04-27T08:47:49.930Z,10.59
2023-04-27T08:48:49.944Z,10.67
2023-04-27T08:49:50.076Z,10.75
2023-04-27T08:50:49.873Z,10.81
2023-04-27T08:51:49.945Z,10.84
2023-04-27T08:52:49.913Z,10.90
2023-04-27T08:53:49.811Z,11.05
2023-04-27T08:54:49.817Z,11.07
2023-04-27T08:55:49.922Z,11.15
2023-04-27T08:56:50.412Z,11.22
2023-04-27T08:57:49.860Z,11.25
2023-04-27T08:58:49.819Z,11.23
2023-04-27T08:59:49.768Z,11.08
2023-04-27T09:00:50.822Z,11.17
2023-04-27T09:01:49.880Z,11.19
2023-04-27T09:02:49.945Z,11.25
2023-04-27T09:03:50.531Z,11.25
2023-04-27T09:04:49.828Z,11.33
2023-04-27T09:06:03.022Z,11.47
2023-04-27T09:06:51.787Z,11.48
2023-04-27T09:07:49.800Z,11.52
2023-04-27T09:08:49.657Z,11.68
2023-04-27T09:09:51.017Z,11.78
2023-04-27T09:10:50.313Z,11.88
2023-04-27T09:11:49.647Z,11.78
2023-04-27T09:12:49.706Z,11.57
2023-04-27T09:13:49.732Z,11.55
2023-04-27T09:14:49.759Z,11.84
2023-04-27T09:15:49.703Z,11.97
2023-04-27T09:16:49.681Z,12.07
2023-04-27T09:17:49.612Z,12.21
2023-04-27T09:18:49.631Z,12.24
2023-04-27T09:19:49.624Z,12.47
2023-04-27T09:20:49.606Z,12.54
2023-04-27T09:21:49.625Z,12.53
2023-04-27T09:22:49.606Z,12.57
2023-04-27T09:23:50.190Z,12.70
2023-04-27T09:24:49.662Z,12.83
2023-04-27T09:25:49.521Z,13.03
2023-04-27T09:26:49.558Z,13.16
2023-04-27T09:27:49.594Z,13.47
2023-04-27T09:28:49.753Z,13.52
2023-04-27T09:29:49.463Z,13.59
2023-04-27T09:30:49.559Z,13.50
2023-04-27T09:31:49.826Z,13.35
2023-04-27T09:32:49.652Z,13.70
2023-04-27T09:33:49.467Z,13.79
2023-04-27T09:34:49.558Z,13.77
2023-04-27T09:35:49.522Z,13.74
2023-04-27T09:36:49.404Z,13.63
2023-04-27T09:37:49.592Z,13.62
2023-04-27T09:38:49.379Z,13.49
2023-04-27T09:39:49.442Z,13.15
2023-04-27T09:40:50.254Z,13.13
2023-04-27T09:41:49.422Z,12.93
2023-04-27T09:42:49.407Z,12.75
2023-04-27T09:43:49.383Z,12.40
2023-04-27T09:44:49.683Z,12.43
2023-04-27T09:45:49.351Z,12.70
2023-04-27T09:46:49.302Z,12.58
2023-04-27T09:47:49.940Z,12.85
2023-04-27T09:48:49.270Z,13.09
2023-04-27T09:49:49.276Z,13.39
2023-04-27T09:50:49.256Z,13.81
2023-04-27T09:51:50.673Z,13.99
2023-04-27T09:52:49.318Z,13.95
2023-04-27T09:53:49.313Z,13.83
2023-04-27T09:54:49.239Z,13.77
2023-04-27T09:55:51.121Z,13.49
2023-04-27T09:56:49.279Z,13.37
2023-04-27T09:57:49.173Z,13.35
2023-04-27T09:58:49.242Z,13.39
2023-04-27T09:59:49.204Z,13.31
2023-04-27T10:00:49.246Z,13.44
2023-04-27T10:01:49.249Z,13.54
2023-04-27T10:02:53.639Z,13.47
2023-04-27T10:03:51.355Z,13.38
2023-04-27T10:04:49.175Z,13.18
2023-04-27T10:05:50.057Z,13.28
2023-04-27T10:06:49.134Z,13.28
2023-04-27T10:07:49.081Z,13.25
2023-04-27T10:08:49.103Z,13.19
2023-04-27T10:09:49.068Z,13.20
2023-04-27T10:10:49.832Z,13.18
2023-04-27T10:11:49.089Z,13.22
2023-04-27T10:12:49.557Z,13.11
2023-04-27T10:13:49.063Z,13.22
2023-04-27T10:14:49.124Z,13.27
2023-04-27T10:15:49.042Z,13.49
2023-04-27T10:16:49.035Z,13.31
2023-04-27T10:17:49.044Z,13.37
2023-04-27T10:18:48.996Z,13.44
2023-04-27T10:19:49.015Z,13.38
2023-04-27T10:20:48.966Z,13.46
2023-04-27T10:21:48.950Z,13.41
2023-04-27T10:22:48.968Z,13.41
2023-04-27T10:23:48.955Z,13.41
2023-04-27T10:24:48.908Z,13.37
2023-04-27T10:25:48.986Z,13.37
2023-04-27T10:26:48.924Z,13.41
2023-04-27T10:27:48.886Z,13.54
2023-04-27T10:28:48.990Z,13.54
2023-04-27T10:29:48.890Z,13.46
2023-04-27T10:30:48.870Z,13.37
2023-04-27T10:31:48.902Z,13.19
2023-04-27T10:32:48.984Z,13.01
2023-04-27T10:33:48.883Z,12.85
2023-04-27T10:34:48.824Z,13.08
2023-04-27T10:35:49.009Z,13.16
2023-04-27T10:36:48.833Z,13.41
2023-04-27T10:37:48.805Z,13.54
2023-04-27T10:38:48.757Z,13.74
2023-04-27T10:39:50.111Z,13.78
2023-04-27T10:40:49.787Z,13.86
2023-04-27T10:41:50.696Z,13.85
2023-04-27T10:42:48.760Z,14.03
2023-04-27T10:43:48.769Z,14.18
2023-04-27T10:44:48.723Z,13.96
2023-04-27T10:45:48.690Z,13.95
2023-04-27T10:46:48.874Z,13.79
2023-04-27T10:47:48.753Z,13.83
2023-04-27T10:48:49.681Z,14.18
2023-04-27T10:49:48.694Z,14.32
2023-04-27T10:50:49.356Z,14.29
2023-04-27T10:51:49.347Z,14.36
2023-04-27T10:52:48.675Z,14.28
2023-04-27T10:53:48.684Z,14.18
2023-04-27T10:54:48.695Z,14.23
2023-04-27T10:55:48.785Z,14.20
2023-04-27T10:56:48.705Z,14.30
2023-04-27T10:57:48.653Z,14.20
2023-04-27T10:58:49.623Z,14.33
2023-04-27T10:59:49.582Z,14.18
2023-04-27T11:00:48.646Z,14.14
2023-04-27T11:01:48.618Z,14.26
2023-04-27T11:02:48.738Z,14.29
2023-04-27T11:03:48.704Z,14.37
2023-04-27T11:04:48.653Z,14.36
2023-04-27T11:05:48.514Z,14.29
2023-04-27T11:06:48.583Z,14.43
2023-04-27T11:07:48.539Z,14.43
2023-04-27T11:08:48.528Z,14.59
2023-04-27T11:09:48.743Z,14.65
2023-04-27T11:10:48.490Z,14.65
2023-04-27T11:11:48.506Z,14.55
2023-04-27T11:12:48.597Z,14.47
2023-04-27T11:13:48.509Z,14.63
2023-04-27T11:14:48.460Z,14.54
2023-04-27T11:15:48.515Z,14.62
2023-04-27T11:16:48.572Z,14.55
2023-04-27T11:17:48.471Z,14.36
2023-04-27T11:18:48.473Z,14.48
2023-04-27T11:19:48.432Z,14.65
2023-04-27T11:20:48.419Z,14.82
2023-04-27T11:21:48.369Z,15.07
2023-04-27T11:22:48.393Z,15.02
2023-04-27T11:23:49.322Z,15.07
2023-04-27T11:24:48.329Z,15.11
2023-04-27T11:25:48.364Z,14.91
2023-04-27T11:26:48.323Z,14.92
2023-04-27T11:27:48.352Z,14.92
2023-04-27T11:28:48.313Z,14.82
2023-04-27T11:29:48.273Z,14.72
2023-04-27T11:30:48.362Z,14.68
2023-04-27T11:31:48.281Z,14.86
2023-04-27T11:32:48.478Z,14.85
2023-04-27T11:33:48.232Z,14.94
2023-04-27T11:34:48.298Z,15.02
2023-04-27T11:35:48.327Z,15.04
2023-04-27T11:36:48.229Z,14.92
2023-04-27T11:37:49.240Z,14.86
2023-04-27T11:38:48.202Z,14.99
2023-04-27T11:39:48.238Z,14.92
2023-04-27T11:40:48.175Z,14.91
2023-04-27T11:41:48.240Z,14.92
2023-04-27T11:42:48.193Z,15.24
2023-04-27T11:43:48.150Z,15.36
2023-04-27T11:44:48.214Z,15.62
2023-04-27T11:45:48.112Z,15.24
2023-04-27T11:46:48.141Z,15.24
2023-04-27T11:47:48.177Z,15.46
2023-04-27T11:48:48.169Z,15.47
2023-04-27T11:49:48.086Z,15.11
2023-04-27T11:50:48.103Z,15.11
2023-04-27T11:51:48.061Z,15.33
2023-04-27T11:52:48.061Z,14.84
2023-04-27T11:53:48.041Z,14.73
2023-04-27T11:54:48.021Z,14.78
2023-04-27T11:55:48.156Z,14.59
2023-04-27T11:56:48.150Z,14.66
2023-04-27T11:57:48.021Z,14.99
2023-04-27T11:58:48.025Z,15.11
2023-04-27T11:59:47.999Z,15.18
2023-04-27T12:00:48.003Z,15.06
2023-04-27T12:01:48.009Z,15.10
2023-04-27T12:02:48.296Z,14.91
2023-04-27T12:03:48.063Z,14.96
2023-04-27T12:04:48.463Z,15.00
2023-04-27T12:05:48.117Z,15.25
2023-04-27T12:06:48.077Z,15.47
2023-04-27T12:07:47.913Z,15.79
2023-04-27T12:08:47.881Z,15.94
2023-04-27T12:09:47.895Z,16.09
2023-04-27T12:10:47.898Z,15.91
2023-04-27T12:11:47.977Z,16.01
2023-04-27T12:12:47.880Z,16.05
2023-04-27T12:13:47.893Z,15.97
2023-04-27T12:14:47.818Z,16.13
2023-04-27T12:15:47.812Z,16.08
2023-04-27T12:16:47.972Z,16.02
2023-04-27T12:17:47.866Z,16.23
2023-04-27T12:18:47.880Z,16.49
2023-04-27T12:19:47.784Z,16.64
2023-04-27T12:20:47.813Z,16.65
2023-04-27T12:21:47.794Z,16.61
2023-04-27T12:22:47.851Z,16.57
2023-04-27T12:23:47.829Z,16.50
2023-04-27T12:24:47.716Z,16.41
2023-04-27T12:25:47.725Z,16.31
2023-04-27T12:26:47.796Z,16.17
2023-04-27T12:27:47.808Z,16.39
2023-04-27T12:28:47.703Z,16.32
2023-04-27T12:29:47.660Z,16.58
2023-04-27T12:30:48.352Z,16.38
2023-04-27T12:31:47.694Z,16.09
2023-04-27T12:32:47.766Z,16.08
2023-04-27T12:33:47.646Z,16.24
2023-04-27T12:34:47.732Z,16.43
2023-04-27T12:35:47.676Z,16.72
2023-04-27T12:36:47.592Z,16.54
2023-04-27T12:37:47.758Z,16.41
2023-04-27T12:38:47.603Z,16.42
2023-04-27T12:39:47.547Z,16.46
2023-04-27T12:40:47.602Z,16.53
2023-04-27T12:41:47.599Z,16.64
2023-04-27T12:42:47.609Z,17.04
2023-04-27T12:43:47.560Z,17.11
2023-04-27T12:44:47.688Z,17.44
2023-04-27T12:45:47.602Z,17.56
2023-04-27T12:46:47.633Z,17.48
2023-04-27T12:48:01.621Z,16.94
2023-04-27T12:48:49.584Z,15.94
2023-04-27T12:49:47.643Z,16.08
2023-04-27T12:50:47.448Z,16.53
2023-04-27T12:51:47.477Z,16.69
2023-04-27T12:52:47.435Z,16.69
2023-04-27T12:53:47.462Z,16.31
2023-04-27T12:54:47.465Z,15.95
2023-04-27T12:55:47.521Z,16.05
2023-04-27T12:56:47.408Z,16.28
2023-04-27T12:57:47.447Z,16.54
2023-04-27T12:58:47.413Z,16.58
2023-04-27T12:59:47.389Z,16.32
2023-04-27T13:00:47.393Z,16.13
2023-04-27T13:01:47.408Z,15.97
2023-04-27T13:02:47.501Z,15.80
2023-04-27T13:03:47.544Z,15.76
2023-04-27T13:04:47.388Z,15.83
2023-04-27T13:05:47.312Z,16.01
2023-04-27T13:06:47.309Z,16.09
2023-04-27T13:07:47.486Z,15.94
2023-04-27T13:08:47.274Z,15.43
2023-04-27T13:09:47.287Z,15.18
2023-04-27T13:10:47.273Z,14.89
2023-04-27T13:11:47.195Z,14.82
2023-04-27T13:12:47.226Z,14.84
2023-04-27T13:13:47.240Z,14.86
2023-04-27T13:14:47.203Z,15.02
2023-04-27T13:15:47.216Z,15.03
2023-04-27T13:16:47.229Z,15.21
2023-04-27T13:17:47.189Z,15.15
2023-04-27T13:18:47.176Z,15.29
2023-04-27T13:19:47.170Z,15.31
2023-04-27T13:20:47.165Z,15.57
2023-04-27T13:21:47.130Z,16.04